»·PEaware :: N4769F 32CA-KNUQ

N4769F :: 32CA-KNUQ

FLIGHT INFORMATION

Flight Status: Arrived
Operator: Privately registered:
United States
More flights under this callsign
Pilot: Andrew G. (414)
Aircraft: CIRRUS SR-20
(SR20)
More flights by this aircraft type
Origin: 32CA Stone Airstrip
United States
Destination: KNUQ Moffett Federal AFLD
United States
More flights between these airports :: More routes between these airports
Route: CITIE V107 MABRY
File this flight plan on PilotEdge
Remarks:
Altitude:
(Current/Filed)
8,000ft
Speed:
(Current/Filed)
146kts
Departed: 21-Sep-21 09:09 PM
Arrived: 21-Sep-21 10:20 PM
Distance/Time
Traveled:
125nm/1:11
Distance/Time
To Go:
Arrived

Flight Plot

Page will automatically refresh every two minutes.

Flight plan parsing failed; only flown route is shown


Map Options




Map Legend


Flown Route
Filed Route
Departure Airport
Arrival Airport
Navaid (VOR, NDB)
Fix

Horizontal Profiles

Position Reports

Time Latitude Longitude Heading Altitude Ground
Speed
21-Sep-21 20:45 36.331110 -119.825745 62 223ft 0kts
21-Sep-21 20:46 36.331110 -119.825745 62 223ft 0kts
21-Sep-21 20:47 36.331110 -119.825745 62 223ft 0kts
21-Sep-21 20:48 36.331110 -119.825745 62 223ft 0kts
21-Sep-21 20:49 36.331110 -119.825745 62 223ft 0kts
21-Sep-21 20:50 36.331110 -119.825745 62 223ft 0kts
21-Sep-21 20:51 36.331110 -119.825745 62 223ft 0kts
21-Sep-21 20:52 36.331110 -119.825745 62 223ft 0kts
21-Sep-21 20:53 36.331110 -119.825745 62 223ft 0kts
21-Sep-21 20:54 36.331119 -119.825730 51 223ft 0kts
21-Sep-21 20:55 36.331119 -119.825730 51 223ft 0kts
21-Sep-21 20:56 36.331119 -119.825730 51 223ft 0kts
21-Sep-21 20:57 36.331119 -119.825730 51 223ft 0kts
21-Sep-21 20:58 36.331119 -119.825730 51 223ft 0kts
21-Sep-21 20:59 36.331119 -119.825730 51 223ft 0kts
21-Sep-21 21:00 36.331119 -119.825730 51 223ft 0kts
21-Sep-21 21:01 36.331119 -119.825730 51 223ft 0kts
21-Sep-21 21:02 36.331119 -119.825730 51 223ft 0kts
21-Sep-21 21:03 36.331119 -119.825730 51 223ft 0kts
21-Sep-21 21:04 36.331119 -119.825730 51 223ft 0kts
21-Sep-21 21:05 36.331123 -119.825713 83 223ft 0kts
21-Sep-21 21:06 36.331119 -119.825459 95 223ft 0kts
21-Sep-21 21:07 36.331281 -119.825229 357 223ft 5kts
21-Sep-21 21:08 36.349380 -119.827722 332 725ft 86kts
21-Sep-21 21:09 36.373544 -119.840271 332 1539ft 97kts
21-Sep-21 21:10 36.398069 -119.852717 332 2421ft 95kts
21-Sep-21 21:11 36.419202 -119.869404 268 3228ft 93kts
21-Sep-21 21:12 36.418542 -119.902444 268 3965ft 97kts
21-Sep-21 21:13 36.418818 -119.936312 268 4670ft 100kts
21-Sep-21 21:14 36.419421 -119.971207 268 5334ft 102kts
21-Sep-21 21:15 36.420140 -120.007096 268 5958ft 105kts
21-Sep-21 21:16 36.420906 -120.044190 267 6553ft 108kts
21-Sep-21 21:17 36.421677 -120.081589 266 7117ft 109kts
21-Sep-21 21:18 36.422471 -120.119905 266 7650ft 111kts
21-Sep-21 21:19 36.423232 -120.159148 266 8008ft 125kts
21-Sep-21 21:20 36.424168 -120.206582 267 7996ft 144kts
21-Sep-21 21:21 36.425154 -120.255984 267 7988ft 140kts
21-Sep-21 21:22 36.426078 -120.305012 267 7992ft 143kts
21-Sep-21 21:23 36.427004 -120.355034 267 7991ft 144kts
21-Sep-21 21:24 36.427905 -120.404844 267 7991ft 144kts
21-Sep-21 21:25 36.428796 -120.455004 267 7990ft 145kts
21-Sep-21 21:26 36.429651 -120.505063 267 7991ft 145kts
21-Sep-21 21:27 36.430594 -120.555178 273 7986ft 147kts
21-Sep-21 21:28 36.462216 -120.586676 328 7991ft 150kts
21-Sep-21 21:29 36.497906 -120.613681 328 7991ft 150kts
21-Sep-21 21:30 36.533629 -120.640722 328 7992ft 150kts
21-Sep-21 21:31 36.569888 -120.668176 327 7991ft 151kts
21-Sep-21 21:32 36.605970 -120.695529 327 7991ft 151kts
21-Sep-21 21:33 36.642005 -120.722871 327 7990ft 151kts
21-Sep-21 21:34 36.678193 -120.750369 327 7990ft 152kts
21-Sep-21 21:35 36.714236 -120.777918 322 7991ft 152kts
21-Sep-21 21:36 36.742805 -120.817016 309 7990ft 152kts
21-Sep-21 21:37 36.770927 -120.856415 309 7972ft 152kts
21-Sep-21 21:38 36.799207 -120.896090 309 7973ft 152kts
21-Sep-21 21:39 36.827332 -120.935603 309 7973ft 152kts
21-Sep-21 21:40 36.855461 -120.975146 310 7975ft 152kts
21-Sep-21 21:41 36.883467 -121.014599 310 7986ft 151kts
21-Sep-21 21:42 36.911718 -121.054415 309 7996ft 152kts
21-Sep-21 21:43 36.939826 -121.094098 310 8008ft 152kts
21-Sep-21 21:44 36.968078 -121.134023 310 8019ft 153kts
21-Sep-21 21:45 36.996460 -121.174181 309 8030ft 153kts
21-Sep-21 21:46 37.024870 -121.214441 310 8037ft 153kts
21-Sep-21 21:47 37.053352 -121.254844 310 8038ft 154kts
21-Sep-21 21:48 37.081875 -121.295348 310 8037ft 154kts
21-Sep-21 21:49 37.110609 -121.336183 310 8036ft 154kts
21-Sep-21 21:50 37.139323 -121.377067 310 8031ft 153kts
21-Sep-21 21:51 37.168105 -121.418097 310 8024ft 153kts
21-Sep-21 21:52 37.197521 -121.460078 310 8014ft 153kts
21-Sep-21 21:53 37.226372 -121.501299 310 8006ft 153kts
21-Sep-21 21:54 37.255670 -121.543207 310 7998ft 153kts
21-Sep-21 21:55 37.284039 -121.583857 310 7990ft 153kts
21-Sep-21 21:56 37.312239 -121.624294 310 7991ft 152kts
21-Sep-21 21:57 37.340251 -121.664533 309 7989ft 152kts
21-Sep-21 21:58 37.368175 -121.704693 309 7989ft 152kts
21-Sep-21 21:59 37.396789 -121.745879 309 7989ft 152kts
21-Sep-21 22:00 37.425084 -121.786364 309 7990ft 152kts
21-Sep-21 22:01 37.453082 -121.826348 309 7989ft 151kts
21-Sep-21 22:02 37.482115 -121.867818 310 7990ft 151kts
21-Sep-21 22:03 37.510493 -121.908356 310 7990ft 151kts
21-Sep-21 22:04 37.536127 -121.952652 306 7984ft 151kts
21-Sep-21 22:05 37.565210 -121.998498 322 7602ft 167kts
21-Sep-21 22:06 37.610828 -122.018428 335 7100ft 170kts
21-Sep-21 22:08 37.654156 -122.046648 333 6596ft 170kts
21-Sep-21 22:09 37.697289 -122.075003 333 6078ft 169kts
21-Sep-21 22:10 37.741291 -122.103578 330 5190ft 177kts
21-Sep-21 22:11 37.725659 -122.136273 163 4572ft 159kts
21-Sep-21 22:12 37.680066 -122.134531 186 4039ft 156kts
21-Sep-21 22:13 37.635698 -122.139960 187 3528ft 156kts
21-Sep-21 22:14 37.591597 -122.138566 161 3016ft 156kts
21-Sep-21 22:15 37.554567 -122.119327 161 2616ft 122kts
21-Sep-21 22:16 37.520437 -122.101737 160 1972ft 132kts
21-Sep-21 22:17 37.485713 -122.083875 156 1237ft 129kts
21-Sep-21 22:18 37.455394 -122.068225 157 621ft 99kts
21-Sep-21 22:19 37.434033 -122.057201 155 161ft 74kts
21-Sep-21 22:20 37.419303 -122.049616 167 11ft 20kts
21-Sep-21 22:21 37.417460 -122.051752 244 14ft 14kts
21-Sep-21 22:22 37.415099 -122.051898 156 19ft 12kts
21-Sep-21 22:23 37.410398 -122.049567 159 25ft 16kts
21-Sep-21 22:24 37.409585 -122.050226 338 27ft 0kts
21-Sep-21 22:25 37.409585 -122.050226 338 27ft 0kts
21-Sep-21 22:26 37.409585 -122.050226 338 27ft 0kts
21-Sep-21 22:27 37.409585 -122.050226 338 27ft 0kts
21-Sep-21 22:28 37.409585 -122.050226 338 27ft 0kts
21-Sep-21 22:29 37.409585 -122.050226 338 27ft 0kts
21-Sep-21 22:30 37.409585 -122.050226 338 27ft 0kts
21-Sep-21 22:31 37.409585 -122.050226 338 27ft 0kts
21-Sep-21 22:31 37.409585 -122.050226 338 27ft 0kts
21-Sep-21 22:33 37.409585 -122.050226 338 27ft 0kts
21-Sep-21 22:34 37.409585 -122.050226 338 27ft 0kts
21-Sep-21 22:35 37.409585 -122.050226 338 27ft 0kts

Navigation Log

Ident Type
Flight plan parsing failed, navigation log unavailable